Bost/Laskar, Afghanistan
Current Conditions -  °F | °C
As of 3:50 PM on Tuesday 21 Oct 2014 (Local Time) from EQBH Reporting Station
Few Clouds Few Clouds  
Wind Chill: 88°   Ceiling: Unl
Heat Index: 88°   Visibility: 6mi
Dew Point: 32°   Wind: 1mph
Humidity: 14%   Direction: 20°NNE
Pressure: 30.06"   Gusts: NA
Location:  31.55°N, 64.37°E
Report Text: EQBH 211150Z 02001KT 9999 FEW200 31/00 Q1018 BLU NOSIG
Loading
Personal Weather Stations






























Interactive Weather Map
Tropical Storm Tracking
New forecast layout! Learn more

10-Day Weather Forecast

Advertisements
Track Severe Weather on mobile